sensor_id;sensor_type;location;lat;lon;timestamp;P1;durP1;ratioP1;P2;durP2;ratioP2
65605;SDS011;52276;48.906;2.384;2022-09-01T00:00:07;0.98;;;0.25;;
65605;SDS011;52276;48.906;2.384;2022-09-01T00:01:09;1.04;;;0.33;;
65605;SDS011;52276;48.906;2.384;2022-09-01T00:02:06;1.02;;;0.28;;
65605;SDS011;52276;48.906;2.384;2022-09-01T00:03:06;0.85;;;0.18;;
65605;SDS011;52276;48.906;2.384;2022-09-01T00:04:07;0.99;;;0.3;;
65605;SDS011;52276;48.906;2.384;2022-09-01T00:05:06;1.05;;;0.35;;
65605;SDS011;52276;48.906;2.384;2022-09-01T00:06:06;0.98;;;0.34;;
65605;SDS011;52276;48.906;2.384;2022-09-01T00:07:07;1.04;;;0.38;;
65605;SDS011;52276;48.906;2.384;2022-09-01T00:08:06;0.94;;;0.28;;
65605;SDS011;52276;48.906;2.384;2022-09-01T00:09:07;1.14;;;0.36;;
65605;SDS011;52276;48.906;2.384;2022-09-01T00:10:07;1.03;;;0.36;;
65605;SDS011;52276;48.906;2.384;2022-09-01T00:11:06;0.83;;;0.26;;
65605;SDS011;52276;48.906;2.384;2022-09-01T00:12:07;0.95;;;0.35;;
65605;SDS011;52276;48.906;2.384;2022-09-01T00:13:07;0.89;;;0.27;;
65605;SDS011;52276;48.906;2.384;2022-09-01T00:14:07;0.98;;;0.35;;
65605;SDS011;52276;48.906;2.384;2022-09-01T00:15:08;0.96;;;0.32;;
65605;SDS011;52276;48.906;2.384;2022-09-01T00:16:07;1.05;;;0.36;;
65605;SDS011;52276;48.906;2.384;2022-09-01T00:17:07;1.01;;;0.33;;
65605;SDS011;52276;48.906;2.384;2022-09-01T00:18:06;0.98;;;0.26;;
65605;SDS011;52276;48.906;2.384;2022-09-01T00:19:06;1.05;;;0.3;;
65605;SDS011;52276;48.906;2.384;2022-09-01T00:20:07;1.11;;;0.35;;
65605;SDS011;52276;48.906;2.384;2022-09-01T00:21:06;1.19;;;0.4;;
65605;SDS011;52276;48.906;2.384;2022-09-01T00:22:06;1;;;0.25;;
65605;SDS011;52276;48.906;2.384;2022-09-01T00:23:06;0.98;;;0.25;;
65605;SDS011;52276;48.906;2.384;2022-09-01T00:24:07;1.02;;;0.35;;
65605;SDS011;52276;48.906;2.384;2022-09-01T00:25:07;1.08;;;0.38;;
65605;SDS011;52276;48.906;2.384;2022-09-01T00:26:06;1.03;;;0.31;;
65605;SDS011;52276;48.906;2.384;2022-09-01T00:27:06;0.88;;;0.18;;
65605;SDS011;52276;48.906;2.384;2022-09-01T00:28:06;0.94;;;0.23;;
65605;SDS011;52276;48.906;2.384;2022-09-01T00:29:06;0.96;;;0.24;;
65605;SDS011;52276;48.906;2.384;2022-09-01T00:30:07;0.88;;;0.19;;
65605;SDS011;52276;48.906;2.384;2022-09-01T00:31:07;1.1;;;0.28;;
65605;SDS011;52276;48.906;2.384;2022-09-01T00:32:06;0.98;;;0.23;;
65605;SDS011;52276;48.906;2.384;2022-09-01T00:33:06;0.97;;;0.24;;
65605;SDS011;52276;48.906;2.384;2022-09-01T00:34:06;0.97;;;0.21;;
65605;SDS011;52276;48.906;2.384;2022-09-01T00:35:06;0.9;;;0.16;;
65605;SDS011;52276;48.906;2.384;2022-09-01T00:36:07;0.89;;;0.19;;
65605;SDS011;52276;48.906;2.384;2022-09-01T00:37:06;0.91;;;0.2;;
65605;SDS011;52276;48.906;2.384;2022-09-01T00:38:06;1.07;;;0.29;;
65605;SDS011;52276;48.906;2.384;2022-09-01T00:39:06;0.98;;;0.24;;
65605;SDS011;52276;48.906;2.384;2022-09-01T00:40:07;1.2;;;0.31;;
65605;SDS011;52276;48.906;2.384;2022-09-01T00:41:06;0.95;;;0.21;;
65605;SDS011;52276;48.906;2.384;2022-09-01T00:42:06;0.93;;;0.19;;
65605;SDS011;52276;48.906;2.384;2022-09-01T00:43:10;1.03;;;0.18;;
65605;SDS011;52276;48.906;2.384;2022-09-01T00:44:07;0.92;;;0.16;;
65605;SDS011;52276;48.906;2.384;2022-09-01T00:45:07;1;;;0.3;;
65605;SDS011;52276;48.906;2.384;2022-09-01T00:46:13;1.01;;;0.26;;
65605;SDS011;52276;48.906;2.384;2022-09-01T00:47:06;1.06;;;0.26;;
65605;SDS011;52276;48.906;2.384;2022-09-01T00:48:06;1.04;;;0.26;;
65605;SDS011;52276;48.906;2.384;2022-09-01T00:49:08;0.99;;;0.22;;
65605;SDS011;52276;48.906;2.384;2022-09-01T00:50:07;0.91;;;0.2;;
65605;SDS011;52276;48.906;2.384;2022-09-01T00:51:06;0.99;;;0.2;;
65605;SDS011;52276;48.906;2.384;2022-09-01T00:52:08;1.17;;;0.32;;
65605;SDS011;52276;48.906;2.384;2022-09-01T00:53:06;1.03;;;0.29;;
65605;SDS011;52276;48.906;2.384;2022-09-01T00:54:07;1.06;;;0.27;;
65605;SDS011;52276;48.906;2.384;2022-09-01T00:55:08;0.98;;;0.25;;
65605;SDS011;52276;48.906;2.384;2022-09-01T00:56:06;1.06;;;0.3;;
65605;SDS011;52276;48.906;2.384;2022-09-01T00:57:07;1;;;0.22;;
65605;SDS011;52276;48.906;2.384;2022-09-01T00:58:07;0.99;;;0.25;;
65605;SDS011;52276;48.906;2.384;2022-09-01T00:59:06;0.95;;;0.21;;
65605;SDS011;52276;48.906;2.384;2022-09-01T01:00:10;1.24;;;0.27;;
65605;SDS011;52276;48.906;2.384;2022-09-01T01:01:07;1.13;;;0.34;;
65605;SDS011;52276;48.906;2.384;2022-09-01T01:02:06;0.99;;;0.2;;
65605;SDS011;52276;48.906;2.384;2022-09-01T01:03:07;0.94;;;0.2;;
65605;SDS011;52276;48.906;2.384;2022-09-01T01:04:07;0.99;;;0.22;;
65605;SDS011;52276;48.906;2.384;2022-09-01T01:05:07;1.03;;;0.29;;
65605;SDS011;52276;48.906;2.384;2022-09-01T01:06:07;1.07;;;0.33;;
65605;SDS011;52276;48.906;2.384;2022-09-01T01:07:06;1.01;;;0.26;;
65605;SDS011;52276;48.906;2.384;2022-09-01T01:08:07;0.83;;;0.18;;
65605;SDS011;52276;48.906;2.384;2022-09-01T01:09:06;0.88;;;0.16;;
65605;SDS011;52276;48.906;2.384;2022-09-01T01:10:07;1.02;;;0.24;;
65605;SDS011;52276;48.906;2.384;2022-09-01T01:11:08;0.95;;;0.18;;
65605;SDS011;52276;48.906;2.384;2022-09-01T01:12:07;1.1;;;0.31;;
65605;SDS011;52276;48.906;2.384;2022-09-01T01:13:08;0.93;;;0.19;;
65605;SDS011;52276;48.906;2.384;2022-09-01T01:14:07;0.86;;;0.12;;
65605;SDS011;52276;48.906;2.384;2022-09-01T01:15:07;1.02;;;0.22;;
65605;SDS011;52276;48.906;2.384;2022-09-01T01:16:06;0.93;;;0.17;;
65605;SDS011;52276;48.906;2.384;2022-09-01T01:17:06;1.02;;;0.19;;
65605;SDS011;52276;48.906;2.384;2022-09-01T01:18:06;0.98;;;0.22;;
65605;SDS011;52276;48.906;2.384;2022-09-01T01:19:06;0.95;;;0.2;;
65605;SDS011;52276;48.906;2.384;2022-09-01T01:20:07;0.93;;;0.19;;
65605;SDS011;52276;48.906;2.384;2022-09-01T01:21:07;0.86;;;0.18;;
65605;SDS011;52276;48.906;2.384;2022-09-01T01:22:07;0.88;;;0.17;;
65605;SDS011;52276;48.906;2.384;2022-09-01T01:23:09;0.86;;;0.15;;
65605;SDS011;52276;48.906;2.384;2022-09-01T01:25:06;0.93;;;0.22;;
65605;SDS011;52276;48.906;2.384;2022-09-01T01:26:07;0.85;;;0.17;;
65605;SDS011;52276;48.906;2.384;2022-09-01T01:27:06;0.78;;;0.14;;
65605;SDS011;52276;48.906;2.384;2022-09-01T01:28:10;0.89;;;0.25;;
65605;SDS011;52276;48.906;2.384;2022-09-01T01:29:06;1.83;;;0.25;;
65605;SDS011;52276;48.906;2.384;2022-09-01T01:30:07;1.1;;;0.17;;
65605;SDS011;52276;48.906;2.384;2022-09-01T01:31:08;1.23;;;0.19;;
65605;SDS011;52276;48.906;2.384;2022-09-01T01:32:06;1.35;;;0.2;;
65605;SDS011;52276;48.906;2.384;2022-09-01T01:33:07;1.03;;;0.23;;
65605;SDS011;52276;48.906;2.384;2022-09-01T01:34:06;0.96;;;0.18;;
65605;SDS011;52276;48.906;2.384;2022-09-01T01:35:07;0.91;;;0.18;;
65605;SDS011;52276;48.906;2.384;2022-09-01T01:36:07;0.93;;;0.2;;
65605;SDS011;52276;48.906;2.384;2022-09-01T01:37:07;0.95;;;0.18;;
65605;SDS011;52276;48.906;2.384;2022-09-01T01:38:06;0.98;;;0.19;;
65605;SDS011;52276;48.906;2.384;2022-09-01T01:39:08;0.91;;;0.11;;
65605;SDS011;52276;48.906;2.384;2022-09-01T01:40:07;0.99;;;0.16;;
65605;SDS011;52276;48.906;2.384;2022-09-01T01:41:07;0.94;;;0.18;;
65605;SDS011;52276;48.906;2.384;2022-09-01T01:42:07;0.93;;;0.14;;
65605;SDS011;52276;48.906;2.384;2022-09-01T01:43:07;0.86;;;0.13;;
65605;SDS011;52276;48.906;2.384;2022-09-01T01:44:07;0.98;;;0.28;;
65605;SDS011;52276;48.906;2.384;2022-09-01T01:45:07;0.91;;;0.17;;
65605;SDS011;52276;48.906;2.384;2022-09-01T01:46:07;1.1;;;0.24;;
65605;SDS011;52276;48.906;2.384;2022-09-01T01:47:08;0.98;;;0.22;;
65605;SDS011;52276;48.906;2.384;2022-09-01T01:48:06;0.95;;;0.17;;
65605;SDS011;52276;48.906;2.384;2022-09-01T01:49:07;0.94;;;0.19;;
65605;SDS011;52276;48.906;2.384;2022-09-01T01:50:07;0.99;;;0.2;;
65605;SDS011;52276;48.906;2.384;2022-09-01T01:51:07;0.96;;;0.19;;
65605;SDS011;52276;48.906;2.384;2022-09-01T01:52:06;1;;;0.22;;
65605;SDS011;52276;48.906;2.384;2022-09-01T01:53:07;0.91;;;0.15;;
65605;SDS011;52276;48.906;2.384;2022-09-01T01:54:06;0.95;;;0.16;;
65605;SDS011;52276;48.906;2.384;2022-09-01T01:55:07;0.99;;;0.22;;
65605;SDS011;52276;48.906;2.384;2022-09-01T01:56:06;0.85;;;0.12;;
65605;SDS011;52276;48.906;2.384;2022-09-01T01:57:06;0.83;;;0.15;;
65605;SDS011;52276;48.906;2.384;2022-09-01T01:58:07;1.01;;;0.24;;
65605;SDS011;52276;48.906;2.384;2022-09-01T01:59:07;1.14;;;0.19;;
65605;SDS011;52276;48.906;2.384;2022-09-01T02:00:07;1.05;;;0.23;;
65605;SDS011;52276;48.906;2.384;2022-09-01T02:01:06;1.51;;;0.17;;
65605;SDS011;52276;48.906;2.384;2022-09-01T02:02:06;0.91;;;0.15;;
65605;SDS011;52276;48.906;2.384;2022-09-01T02:03:06;1.06;;;0.19;;
65605;SDS011;52276;48.906;2.384;2022-09-01T02:04:07;0.89;;;0.15;;
65605;SDS011;52276;48.906;2.384;2022-09-01T02:05:06;0.95;;;0.17;;
65605;SDS011;52276;48.906;2.384;2022-09-01T02:06:07;1.02;;;0.19;;
65605;SDS011;52276;48.906;2.384;2022-09-01T02:07:08;0.9;;;0.2;;
65605;SDS011;52276;48.906;2.384;2022-09-01T02:08:07;0.88;;;0.12;;
65605;SDS011;52276;48.906;2.384;2022-09-01T02:09:06;1;;;0.19;;
65605;SDS011;52276;48.906;2.384;2022-09-01T02:10:07;0.99;;;0.21;;
65605;SDS011;52276;48.906;2.384;2022-09-01T02:11:07;0.97;;;0.19;;
65605;SDS011;52276;48.906;2.384;2022-09-01T02:12:07;1.04;;;0.21;;
65605;SDS011;52276;48.906;2.384;2022-09-01T02:13:07;0.94;;;0.16;;
65605;SDS011;52276;48.906;2.384;2022-09-01T02:14:07;0.96;;;0.17;;
65605;SDS011;52276;48.906;2.384;2022-09-01T02:15:07;1.08;;;0.18;;
65605;SDS011;52276;48.906;2.384;2022-09-01T02:16:07;0.95;;;0.15;;
65605;SDS011;52276;48.906;2.384;2022-09-01T02:17:06;0.93;;;0.15;;
65605;SDS011;52276;48.906;2.384;2022-09-01T02:18:06;0.87;;;0.11;;
65605;SDS011;52276;48.906;2.384;2022-09-01T02:19:07;0.94;;;0.2;;
65605;SDS011;52276;48.906;2.384;2022-09-01T02:20:07;0.91;;;0.12;;
65605;SDS011;52276;48.906;2.384;2022-09-01T02:21:08;0.9;;;0.14;;
65605;SDS011;52276;48.906;2.384;2022-09-01T02:22:07;0.97;;;0.18;;
65605;SDS011;52276;48.906;2.384;2022-09-01T02:23:07;1.03;;;0.19;;
65605;SDS011;52276;48.906;2.384;2022-09-01T02:24:06;0.88;;;0.11;;
65605;SDS011;52276;48.906;2.384;2022-09-01T02:25:07;0.96;;;0.13;;
65605;SDS011;52276;48.906;2.384;2022-09-01T02:26:07;0.99;;;0.14;;
65605;SDS011;52276;48.906;2.384;2022-09-01T02:27:07;0.92;;;0.11;;
65605;SDS011;52276;48.906;2.384;2022-09-01T02:28:06;0.9;;;0.17;;
65605;SDS011;52276;48.906;2.384;2022-09-01T02:29:08;0.94;;;0.16;;
65605;SDS011;52276;48.906;2.384;2022-09-01T02:30:07;0.91;;;0.19;;
65605;SDS011;52276;48.906;2.384;2022-09-01T02:31:07;0.84;;;0.12;;
65605;SDS011;52276;48.906;2.384;2022-09-01T02:32:07;0.91;;;0.15;;
65605;SDS011;52276;48.906;2.384;2022-09-01T02:33:07;0.9;;;0.11;;
65605;SDS011;52276;48.906;2.384;2022-09-01T02:34:07;0.97;;;0.14;;
65605;SDS011;52276;48.906;2.384;2022-09-01T02:35:07;0.97;;;0.19;;
65605;SDS011;52276;48.906;2.384;2022-09-01T02:36:08;0.89;;;0.13;;
65605;SDS011;52276;48.906;2.384;2022-09-01T02:37:07;0.98;;;0.23;;
65605;SDS011;52276;48.906;2.384;2022-09-01T02:38:07;1;;;0.23;;
65605;SDS011;52276;48.906;2.384;2022-09-01T02:39:07;0.99;;;0.19;;
65605;SDS011;52276;48.906;2.384;2022-09-01T02:40:07;1.49;;;0.19;;
65605;SDS011;52276;48.906;2.384;2022-09-01T02:41:07;1.42;;;0.19;;
65605;SDS011;52276;48.906;2.384;2022-09-01T02:42:07;0.76;;;0.12;;
65605;SDS011;52276;48.906;2.384;2022-09-01T02:43:07;0.83;;;0.1;;
65605;SDS011;52276;48.906;2.384;2022-09-01T02:44:07;0.77;;;0.1;;
65605;SDS011;52276;48.906;2.384;2022-09-01T02:45:07;0.94;;;0.1;;
65605;SDS011;52276;48.906;2.384;2022-09-01T02:46:07;0.79;;;0.13;;
65605;SDS011;52276;48.906;2.384;2022-09-01T02:47:07;0.82;;;0.15;;
65605;SDS011;52276;48.906;2.384;2022-09-01T02:48:07;0.93;;;0.19;;
65605;SDS011;52276;48.906;2.384;2022-09-01T02:49:07;0.93;;;0.15;;
65605;SDS011;52276;48.906;2.384;2022-09-01T02:50:07;0.8;;;0.15;;
65605;SDS011;52276;48.906;2.384;2022-09-01T02:51:07;0.83;;;0.15;;
65605;SDS011;52276;48.906;2.384;2022-09-01T02:52:07;0.94;;;0.15;;
65605;SDS011;52276;48.906;2.384;2022-09-01T02:53:07;0.85;;;0.15;;
65605;SDS011;52276;48.906;2.384;2022-09-01T02:54:07;0.99;;;0.19;;
65605;SDS011;52276;48.906;2.384;2022-09-01T02:55:07;0.81;;;0.12;;
65605;SDS011;52276;48.906;2.384;2022-09-01T02:56:07;0.83;;;0.13;;
65605;SDS011;52276;48.906;2.384;2022-09-01T02:57:07;1.05;;;0.23;;
65605;SDS011;52276;48.906;2.384;2022-09-01T02:58:07;0.87;;;0.13;;
65605;SDS011;52276;48.906;2.384;2022-09-01T02:59:07;0.96;;;0.2;;
65605;SDS011;52276;48.906;2.384;2022-09-01T03:00:07;0.96;;;0.19;;
65605;SDS011;52276;48.906;2.384;2022-09-01T03:01:10;1.06;;;0.21;;
65605;SDS011;52276;48.906;2.384;2022-09-01T03:02:07;1.02;;;0.18;;
65605;SDS011;52276;48.906;2.384;2022-09-01T03:03:07;0.95;;;0.15;;
65605;SDS011;52276;48.906;2.384;2022-09-01T03:04:10;1.35;;;0.19;;
65605;SDS011;52276;48.906;2.384;2022-09-01T03:05:07;0.94;;;0.2;;
65605;SDS011;52276;48.906;2.384;2022-09-01T03:06:07;1.04;;;0.23;;
65605;SDS011;52276;48.906;2.384;2022-09-01T03:07:07;0.94;;;0.16;;
65605;SDS011;52276;48.906;2.384;2022-09-01T03:08:08;1.13;;;0.25;;
65605;SDS011;52276;48.906;2.384;2022-09-01T03:09:07;1.08;;;0.23;;
65605;SDS011;52276;48.906;2.384;2022-09-01T03:10:07;0.91;;;0.17;;
65605;SDS011;52276;48.906;2.384;2022-09-01T03:11:07;0.95;;;0.21;;
65605;SDS011;52276;48.906;2.384;2022-09-01T03:12:07;0.98;;;0.17;;
65605;SDS011;52276;48.906;2.384;2022-09-01T03:13:09;0.97;;;0.2;;
65605;SDS011;52276;48.906;2.384;2022-09-01T03:14:07;1.25;;;0.2;;
65605;SDS011;52276;48.906;2.384;2022-09-01T03:15:07;0.95;;;0.15;;
65605;SDS011;52276;48.906;2.384;2022-09-01T03:16:07;0.99;;;0.22;;
65605;SDS011;52276;48.906;2.384;2022-09-01T03:17:07;1.14;;;0.47;;
65605;SDS011;52276;48.906;2.384;2022-09-01T03:18:07;0.95;;;0.19;;
65605;SDS011;52276;48.906;2.384;2022-09-01T03:19:07;0.97;;;0.18;;
65605;SDS011;52276;48.906;2.384;2022-09-01T03:20:07;0.89;;;0.1;;
65605;SDS011;52276;48.906;2.384;2022-09-01T03:21:07;0.97;;;0.17;;
65605;SDS011;52276;48.906;2.384;2022-09-01T03:22:07;0.87;;;0.12;;
65605;SDS011;52276;48.906;2.384;2022-09-01T03:23:08;0.93;;;0.15;;
65605;SDS011;52276;48.906;2.384;2022-09-01T03:24:07;0.94;;;0.19;;
65605;SDS011;52276;48.906;2.384;2022-09-01T03:25:07;0.94;;;0.17;;
65605;SDS011;52276;48.906;2.384;2022-09-01T03:26:07;1.37;;;0.25;;
65605;SDS011;52276;48.906;2.384;2022-09-01T03:27:07;0.94;;;0.18;;
65605;SDS011;52276;48.906;2.384;2022-09-01T03:28:07;1;;;0.25;;
65605;SDS011;52276;48.906;2.384;2022-09-01T03:29:07;0.94;;;0.14;;
65605;SDS011;52276;48.906;2.384;2022-09-01T03:30:07;0.96;;;0.22;;
65605;SDS011;52276;48.906;2.384;2022-09-01T03:31:07;0.98;;;0.11;;
65605;SDS011;52276;48.906;2.384;2022-09-01T03:32:07;0.92;;;0.13;;
65605;SDS011;52276;48.906;2.384;2022-09-01T03:33:07;0.88;;;0.15;;
65605;SDS011;52276;48.906;2.384;2022-09-01T03:34:07;0.9;;;0.11;;
65605;SDS011;52276;48.906;2.384;2022-09-01T03:35:07;1;;;0.17;;
65605;SDS011;52276;48.906;2.384;2022-09-01T03:36:07;1.06;;;0.16;;
65605;SDS011;52276;48.906;2.384;2022-09-01T03:37:07;0.89;;;0.1;;
65605;SDS011;52276;48.906;2.384;2022-09-01T03:38:07;0.88;;;0.12;;
65605;SDS011;52276;48.906;2.384;2022-09-01T03:39:07;0.89;;;0.11;;
65605;SDS011;52276;48.906;2.384;2022-09-01T03:40:07;0.96;;;0.2;;
65605;SDS011;52276;48.906;2.384;2022-09-01T03:41:07;0.9;;;0.11;;
65605;SDS011;52276;48.906;2.384;2022-09-01T03:42:07;0.92;;;0.1;;
65605;SDS011;52276;48.906;2.384;2022-09-01T03:43:07;0.99;;;0.2;;
65605;SDS011;52276;48.906;2.384;2022-09-01T03:44:07;0.87;;;0.14;;
65605;SDS011;52276;48.906;2.384;2022-09-01T03:45:07;0.98;;;0.16;;
65605;SDS011;52276;48.906;2.384;2022-09-01T03:46:07;0.94;;;0.15;;
65605;SDS011;52276;48.906;2.384;2022-09-01T03:47:07;0.89;;;0.11;;
65605;SDS011;52276;48.906;2.384;2022-09-01T03:48:07;0.94;;;0.16;;
65605;SDS011;52276;48.906;2.384;2022-09-01T03:49:07;0.91;;;0.13;;
65605;SDS011;52276;48.906;2.384;2022-09-01T03:50:08;0.87;;;0.13;;
65605;SDS011;52276;48.906;2.384;2022-09-01T03:51:07;0.91;;;0.1;;
65605;SDS011;52276;48.906;2.384;2022-09-01T03:52:07;0.88;;;0.15;;
65605;SDS011;52276;48.906;2.384;2022-09-01T03:53:07;0.85;;;0.12;;
65605;SDS011;52276;48.906;2.384;2022-09-01T03:54:07;0.87;;;0.13;;
65605;SDS011;52276;48.906;2.384;2022-09-01T03:55:07;0.84;;;0.11;;
65605;SDS011;52276;48.906;2.384;2022-09-01T03:56:07;1;;;0.2;;
65605;SDS011;52276;48.906;2.384;2022-09-01T03:57:07;0.9;;;0.15;;
65605;SDS011;52276;48.906;2.384;2022-09-01T03:58:07;0.91;;;0.17;;
65605;SDS011;52276;48.906;2.384;2022-09-01T03:59:07;0.9;;;0.17;;
65605;SDS011;52276;48.906;2.384;2022-09-01T04:00:07;0.91;;;0.1;;
65605;SDS011;52276;48.906;2.384;2022-09-01T04:01:07;1.03;;;0.2;;
65605;SDS011;52276;48.906;2.384;2022-09-01T04:02:07;0.88;;;0.19;;
65605;SDS011;52276;48.906;2.384;2022-09-01T04:03:07;0.83;;;0.15;;
65605;SDS011;52276;48.906;2.384;2022-09-01T04:04:07;0.87;;;0.15;;
65605;SDS011;52276;48.906;2.384;2022-09-01T04:05:07;1.16;;;0.12;;
65605;SDS011;52276;48.906;2.384;2022-09-01T04:06:07;0.98;;;0.17;;
65605;SDS011;52276;48.906;2.384;2022-09-01T04:07:07;0.95;;;0.2;;
65605;SDS011;52276;48.906;2.384;2022-09-01T04:08:07;0.89;;;0.15;;
65605;SDS011;52276;48.906;2.384;2022-09-01T04:09:07;0.85;;;0.1;;
65605;SDS011;52276;48.906;2.384;2022-09-01T04:10:07;0.85;;;0.15;;
65605;SDS011;52276;48.906;2.384;2022-09-01T04:11:09;0.85;;;0.15;;
65605;SDS011;52276;48.906;2.384;2022-09-01T04:12:07;1.62;;;0.18;;
65605;SDS011;52276;48.906;2.384;2022-09-01T04:13:07;0.94;;;0.13;;
65605;SDS011;52276;48.906;2.384;2022-09-01T04:14:09;0.84;;;0.11;;
65605;SDS011;52276;48.906;2.384;2022-09-01T04:15:07;0.89;;;0.1;;
65605;SDS011;52276;48.906;2.384;2022-09-01T04:16:14;0.93;;;0.14;;
65605;SDS011;52276;48.906;2.384;2022-09-01T04:17:07;0.94;;;0.15;;
65605;SDS011;52276;48.906;2.384;2022-09-01T04:18:07;0.78;;;0.1;;
65605;SDS011;52276;48.906;2.384;2022-09-01T04:19:07;0.84;;;0.14;;
65605;SDS011;52276;48.906;2.384;2022-09-01T04:20:07;0.85;;;0.1;;
65605;SDS011;52276;48.906;2.384;2022-09-01T04:21:07;0.97;;;0.14;;
65605;SDS011;52276;48.906;2.384;2022-09-01T04:22:07;0.86;;;0.1;;
65605;SDS011;52276;48.906;2.384;2022-09-01T04:23:07;0.83;;;0.09;;
65605;SDS011;52276;48.906;2.384;2022-09-01T04:24:07;0.97;;;0.17;;
65605;SDS011;52276;48.906;2.384;2022-09-01T04:25:07;0.93;;;0.17;;
65605;SDS011;52276;48.906;2.384;2022-09-01T04:26:08;0.92;;;0.17;;
65605;SDS011;52276;48.906;2.384;2022-09-01T04:27:07;0.93;;;0.15;;
65605;SDS011;52276;48.906;2.384;2022-09-01T04:28:07;1;;;0.17;;
65605;SDS011;52276;48.906;2.384;2022-09-01T04:29:07;0.91;;;0.11;;
65605;SDS011;52276;48.906;2.384;2022-09-01T04:30:08;0.81;;;0.1;;
65605;SDS011;52276;48.906;2.384;2022-09-01T04:31:07;0.87;;;0.1;;
65605;SDS011;52276;48.906;2.384;2022-09-01T04:32:08;0.96;;;0.16;;
65605;SDS011;52276;48.906;2.384;2022-09-01T04:33:07;0.88;;;0.12;;
65605;SDS011;52276;48.906;2.384;2022-09-01T04:34:07;0.88;;;0.11;;
65605;SDS011;52276;48.906;2.384;2022-09-01T04:35:07;0.97;;;0.2;;
65605;SDS011;52276;48.906;2.384;2022-09-01T04:36:12;0.95;;;0.13;;
65605;SDS011;52276;48.906;2.384;2022-09-01T04:37:08;0.93;;;0.12;;
65605;SDS011;52276;48.906;2.384;2022-09-01T04:38:07;0.79;;;0.1;;
65605;SDS011;52276;48.906;2.384;2022-09-01T04:39:07;0.89;;;0.15;;
65605;SDS011;52276;48.906;2.384;2022-09-01T04:40:07;0.93;;;0.19;;
65605;SDS011;52276;48.906;2.384;2022-09-01T04:41:07;0.85;;;0.1;;
65605;SDS011;52276;48.906;2.384;2022-09-01T04:42:07;0.78;;;0.1;;
65605;SDS011;52276;48.906;2.384;2022-09-01T04:43:07;0.84;;;0.08;;
65605;SDS011;52276;48.906;2.384;2022-09-01T04:44:07;0.84;;;0.12;;
65605;SDS011;52276;48.906;2.384;2022-09-01T04:45:07;0.9;;;0.15;;
65605;SDS011;52276;48.906;2.384;2022-09-01T04:46:07;0.95;;;0.19;;
65605;SDS011;52276;48.906;2.384;2022-09-01T04:47:07;0.87;;;0.1;;
65605;SDS011;52276;48.906;2.384;2022-09-01T04:48:07;0.86;;;0.1;;
65605;SDS011;52276;48.906;2.384;2022-09-01T04:49:08;0.85;;;0.12;;
65605;SDS011;52276;48.906;2.384;2022-09-01T04:50:07;0.99;;;0.17;;
65605;SDS011;52276;48.906;2.384;2022-09-01T04:51:07;0.98;;;0.1;;
65605;SDS011;52276;48.906;2.384;2022-09-01T04:52:07;0.79;;;0.1;;
65605;SDS011;52276;48.906;2.384;2022-09-01T04:53:07;0.79;;;0.09;;
65605;SDS011;52276;48.906;2.384;2022-09-01T04:54:07;0.81;;;0.13;;
65605;SDS011;52276;48.906;2.384;2022-09-01T04:55:07;0.74;;;0.12;;
65605;SDS011;52276;48.906;2.384;2022-09-01T04:56:07;0.88;;;0.11;;
65605;SDS011;52276;48.906;2.384;2022-09-01T04:57:07;0.88;;;0.13;;
65605;SDS011;52276;48.906;2.384;2022-09-01T04:58:07;0.85;;;0.1;;
65605;SDS011;52276;48.906;2.384;2022-09-01T04:59:07;0.89;;;0.11;;
65605;SDS011;52276;48.906;2.384;2022-09-01T05:00:07;0.82;;;0.09;;
65605;SDS011;52276;48.906;2.384;2022-09-01T05:01:12;0.94;;;0.14;;
65605;SDS011;52276;48.906;2.384;2022-09-01T05:02:07;0.91;;;0.15;;
65605;SDS011;52276;48.906;2.384;2022-09-01T05:03:07;0.87;;;0.14;;
65605;SDS011;52276;48.906;2.384;2022-09-01T05:04:07;1.22;;;0.2;;
65605;SDS011;52276;48.906;2.384;2022-09-01T05:05:07;0.87;;;0.1;;
65605;SDS011;52276;48.906;2.384;2022-09-01T05:06:11;0.89;;;0.12;;
65605;SDS011;52276;48.906;2.384;2022-09-01T05:07:07;0.83;;;0.1;;
65605;SDS011;52276;48.906;2.384;2022-09-01T05:08:07;0.8;;;0.1;;
65605;SDS011;52276;48.906;2.384;2022-09-01T05:09:08;0.93;;;0.12;;
65605;SDS011;52276;48.906;2.384;2022-09-01T05:10:07;0.85;;;0.12;;
65605;SDS011;52276;48.906;2.384;2022-09-01T05:11:07;0.9;;;0.1;;
65605;SDS011;52276;48.906;2.384;2022-09-01T05:12:07;1.04;;;0.14;;
65605;SDS011;52276;48.906;2.384;2022-09-01T05:13:08;1.06;;;0.16;;
65605;SDS011;52276;48.906;2.384;2022-09-01T05:14:07;1.02;;;0.15;;
65605;SDS011;52276;48.906;2.384;2022-09-01T05:15:07;1.03;;;0.18;;
65605;SDS011;52276;48.906;2.384;2022-09-01T05:16:08;0.92;;;0.11;;
65605;SDS011;52276;48.906;2.384;2022-09-01T05:17:07;0.69;;;0.07;;
65605;SDS011;52276;48.906;2.384;2022-09-01T05:18:07;0.96;;;0.14;;
65605;SDS011;52276;48.906;2.384;2022-09-01T05:19:07;0.91;;;0.14;;
65605;SDS011;52276;48.906;2.384;2022-09-01T05:20:07;0.77;;;0.08;;
65605;SDS011;52276;48.906;2.384;2022-09-01T05:21:07;0.82;;;0.13;;
65605;SDS011;52276;48.906;2.384;2022-09-01T05:22:07;0.82;;;0.12;;
65605;SDS011;52276;48.906;2.384;2022-09-01T05:23:08;0.88;;;0.1;;
65605;SDS011;52276;48.906;2.384;2022-09-01T05:24:07;0.93;;;0.1;;
65605;SDS011;52276;48.906;2.384;2022-09-01T05:25:07;0.82;;;0.1;;
65605;SDS011;52276;48.906;2.384;2022-09-01T05:26:11;0.75;;;0.1;;
65605;SDS011;52276;48.906;2.384;2022-09-01T05:27:07;0.8;;;0.1;;
65605;SDS011;52276;48.906;2.384;2022-09-01T05:28:07;0.81;;;0.1;;
65605;SDS011;52276;48.906;2.384;2022-09-01T05:29:07;0.83;;;0.12;;
65605;SDS011;52276;48.906;2.384;2022-09-01T05:30:07;0.89;;;0.11;;
65605;SDS011;52276;48.906;2.384;2022-09-01T05:31:07;1.06;;;0.15;;
65605;SDS011;52276;48.906;2.384;2022-09-01T05:32:07;0.93;;;0.1;;
65605;SDS011;52276;48.906;2.384;2022-09-01T05:33:07;0.88;;;0.1;;
65605;SDS011;52276;48.906;2.384;2022-09-01T05:34:07;0.88;;;0.1;;
65605;SDS011;52276;48.906;2.384;2022-09-01T05:35:07;0.88;;;0.15;;
65605;SDS011;52276;48.906;2.384;2022-09-01T05:36:07;0.8;;;0.1;;
65605;SDS011;52276;48.906;2.384;2022-09-01T05:37:07;0.84;;;0.11;;
65605;SDS011;52276;48.906;2.384;2022-09-01T05:38:07;0.73;;;0.09;;
65605;SDS011;52276;48.906;2.384;2022-09-01T05:39:07;0.77;;;0.08;;
65605;SDS011;52276;48.906;2.384;2022-09-01T05:40:07;0.94;;;0.19;;
65605;SDS011;52276;48.906;2.384;2022-09-01T05:41:08;0.88;;;0.1;;
65605;SDS011;52276;48.906;2.384;2022-09-01T05:42:07;0.96;;;0.23;;
65605;SDS011;52276;48.906;2.384;2022-09-01T05:43:07;0.89;;;0.14;;
65605;SDS011;52276;48.906;2.384;2022-09-01T05:44:07;0.74;;;0.06;;
65605;SDS011;52276;48.906;2.384;2022-09-01T05:45:07;0.79;;;0.08;;
65605;SDS011;52276;48.906;2.384;2022-09-01T05:46:07;0.75;;;0.05;;
65605;SDS011;52276;48.906;2.384;2022-09-01T05:47:07;0.82;;;0.1;;
65605;SDS011;52276;48.906;2.384;2022-09-01T05:48:07;0.79;;;0.1;;
65605;SDS011;52276;48.906;2.384;2022-09-01T05:49:07;0.86;;;0.11;;
65605;SDS011;52276;48.906;2.384;2022-09-01T05:50:07;0.72;;;0.05;;
65605;SDS011;52276;48.906;2.384;2022-09-01T05:51:07;0.97;;;0.16;;
65605;SDS011;52276;48.906;2.384;2022-09-01T05:52:07;0.89;;;0.13;;
65605;SDS011;52276;48.906;2.384;2022-09-01T05:53:07;0.82;;;0.08;;
65605;SDS011;52276;48.906;2.384;2022-09-01T05:54:07;0.84;;;0.1;;
65605;SDS011;52276;48.906;2.384;2022-09-01T05:55:07;0.83;;;0.1;;
65605;SDS011;52276;48.906;2.384;2022-09-01T05:56:07;0.84;;;0.11;;
65605;SDS011;52276;48.906;2.384;2022-09-01T05:57:07;1.07;;;0.17;;
65605;SDS011;52276;48.906;2.384;2022-09-01T05:58:07;0.87;;;0.12;;
65605;SDS011;52276;48.906;2.384;2022-09-01T05:59:07;0.96;;;0.14;;
65605;SDS011;52276;48.906;2.384;2022-09-01T06:00:07;0.86;;;0.1;;
65605;SDS011;52276;48.906;2.384;2022-09-01T06:01:07;1.02;;;0.18;;
65605;SDS011;52276;48.906;2.384;2022-09-01T06:02:07;1.01;;;0.24;;
65605;SDS011;52276;48.906;2.384;2022-09-01T06:03:08;0.93;;;0.11;;
65605;SDS011;52276;48.906;2.384;2022-09-01T06:04:08;0.93;;;0.19;;